Ana Sayfa
METAR-TAF:

METAR-TAF

Havaalanları :

New Bern, Kuzey Carolina, Amerika Birleşik Devletleri

Enlem: 35-04-03N, Boylam: 077-02-50W, yükseklik: 5 m

Güncel hava durumu gözlemi

Rapor saat 03:54 UTC de 54 dakika önce yapıldı.
Rüzgar güney/güneybatıdan 6 kt
Sıcaklık 27°C
Nem 84%
Basınç 1016 hPa
Görüş mesafesi: 16.1 km
Açık gökyüzü

METAR: KEWN 210354Z AUTO 21006KT 10SM CLR 27/24 A3000 RMK AO2 SLP157 T02670244

Saat: 00:48 (04:48 UTC)

Tahmin

Rapor saat 23:20 UTC de 5 saat ve 28 dakika önce yapıldı.
Ayın 21'si saat 00 UTC'den ayın 21'si saat 24 UTC'ye kadar geçerli Tahmin
Rüzgar güney/güneybatıdan 6 kt
Görüş mesafesi: 10 km
25000 ft yükseklikte az bulutlu
Ayın 21'si saat 1900 UTC'den
Rüzgar güneybatıdan 9 kt ve 17 kt'a kadar ani rüzgarlar
Görüş mesafesi: 10 km
5000 ft yükseklikte parçalı bulutlu

TAF: KEWN 202320Z 2100/2124 20006KT P6SM FEW250 FM211900 23009G17KT P6SM SCT050

4.000'den fazla havaalanı için hava durumu gözlemleri ve tahminleri (METAR ve TAF raporları).

Kullanılabilir istasyonlar harita üzerinde sarı ve kırmızı noktalarla gösterilir.

İstasyonun adını görmek için fareyi noktanın üzerinde gezdirin.

Sonrasında hava gözlem ve tahminlerini görmek için tıklayın.

Haritayı değiştirmek için: yaklaştırmak için siyah artı işaretli yeşil düğmeye ve uzaklaştırmak için de eksi işaretli düğmeye hızla tıklayın; bitişik haritalar için yeşil okları kullanın.


METAR-TAF: